KORD

Chicago O'hare International Airport

Chicago, Illinois, USA
METAR KORD 180151Z 04007KT 10SM SCT024 SCT055 BKN130 BKN250 24/19 A2999 RMK AO2 SLP152 T02440194
Observed Flight Rules
Aug-18 @ 01:51 UTC (39 minutes ago) Visual Flight Rules
Wind Visibility Clouds
40° at 7 knots 10 miles
  • Scattered at 2,400' AGL
  • Scattered at 5,500' AGL
  • Broken at 13,000' AGL
  • Broken at 25,000' AGL
Temperatures Readings
Current 24°C / 75°F
Dewpoint 19°C / 66°F
Humidity 74%
Altimeter 29.99" Hg
Pressure 1015.2 hPa
Elevation 200
METAR KORD 180151Z 04007KT 10SM SCT024 SCT055 BKN130 BKN250 24/19 A2999 RMK AO2 SLP152 T02440194
Observed Flight Rules
Aug-18 @ 01:51 UTC
(39 minutes ago)
VFR
Wind Visibility
40° at 7 knots 10 miles
Clouds
  • Scattered at 2,400' AGL
  • Scattered at 5,500' AGL
  • Broken at 13,000' AGL
  • Broken at 25,000' AGL
Temperature Dewpoint
24°C / 75°F 19°C / 66°F
Humidity Altimeter Pressure
74% 29.99" Hg 1015.2 hPa